Silverton, ID

4:46 PM PDT on September 22, 2014 (GMT -0700)
Diamond Street | Change Station
CLOSE
Current Station
Personal Weather Station
Location: Kellogg, ID
Elevation: 2280 ft
Nearby Weather Stations
Active Advisory: Air Quality Alert

Elev 2280 ft 47.54 °N, 116.13 °W | Updated 10 seconds ago

Partly Cloudy
Partly Cloudy
82.2 °F
Feels Like 81 °F
N
1.0
Wind Variable Wind from NNW
Gusts 2.0 mph

Today
High -- | Low -- °F
--% Chance of Precip.
Yesterday
High -- | Low -- °F
Precip. -- in
6:30 AM 6:41 PM
Waning Crescent, 2% visible
Pressure 29.90 in
Visibility 10.0 miles
Clouds Clear
Heat Index 81 °F
Dew Point 51 °F
Humidity 34%
Rainfall 0.00 in
Snow Depth 0 in , 0 in , 0 in
UV 2 out of 12
Pollen 7.30 out of 12
Air Quality Not available.
Flu Activity Not available.
METAR KCOE 222335Z AUTO 24008KT 10SM CLR 28/08 A2990 RMK AO1

More Conditions Fewer Conditions

Pressure 29.90 in
Visibility 10.0 miles
Clouds Clear
Heat Index 81 °F
Dew Point 51 °F
Humidity 34%
Rainfall 0.00 in
Snow Depth 0 in , 0 in , 0 in
UV 2 out of 12
Pollen 7.30 out of 12
Air Quality Not available.
Flu Activity Not available.
METAR KCOE 222335Z AUTO 24008KT 10SM CLR 28/08 A2990 RMK AO1

More Conditions Fewer Conditions

10-Day Weather Forecast

Almanac

Astronomy

Sep. 22, 2014 Rise Set
Actual Time 6:30 AM PDT 6:41 PM PDT
Civil Twilight 6:00 AM PDT 7:11 PM PDT
Nautical Twilight 5:23 AM PDT 7:48 PM PDT
Astronomical Twilight 4:46 AM PDT 8:25 PM PDT
Moon 4:59 AM PDT 5:53 PM PDT
Length of Visible Light 13h 11m
Length of Day
12h 10m
Tomorrow will be 3m 24s shorter.
Waning Crescent, 2% of the Moon is Illuminated
Today
Waning Crescent
Sep 24
New
Oct 1
First Quarter
Oct 8
Full
Oct 15
Last Quarter

Today's Extremes

State Highs State Lows

Community

WunderPhotos

Upload Photos

1,755,558 photos uploaded!

Nearby

Snow Depth

Station Depth Elevation
Magic Mountain 0 in 6880 ft
Sheep Mountain 0 in 6570 ft
Schweitzer Basin 0 in 6090 ft
Mud Flat 0 in 5730 ft
Atlanta Summit 0 in 7580 ft

Earthquake Activity

City Distance Mag. Time & Date
No recent earthquake activity has been reported nearby.
Minimum magnitude displayed is 2.5.

Coastal Water Temperatures

Place Temperature
No Stations Reporting

Nearby Weather Stations